sensor_id;sensor_type;location;lat;lon;timestamp;pressure;altitude;pressure_sealevel;temperature;humidity
40574;BME280;26283;49.020;8.644;2023-11-21T00:01:06;98654.34;;;13.16;64.15
40574;BME280;26283;49.020;8.644;2023-11-21T00:03:33;98664.09;;;13.17;64.16
40574;BME280;26283;49.020;8.644;2023-11-21T00:05:59;98659.75;;;13.16;64.17
40574;BME280;26283;49.020;8.644;2023-11-21T00:08:25;98658.13;;;13.15;64.18
40574;BME280;26283;49.020;8.644;2023-11-21T00:10:51;98656.78;;;13.18;64.18
40574;BME280;26283;49.020;8.644;2023-11-21T00:13:16;98652.44;;;13.17;64.20
40574;BME280;26283;49.020;8.644;2023-11-21T00:15:42;98657.03;;;13.16;64.19
40574;BME280;26283;49.020;8.644;2023-11-21T00:18:07;98651.84;;;13.15;64.20
40574;BME280;26283;49.020;8.644;2023-11-21T00:20:32;98654.56;;;13.15;64.20
40574;BME280;26283;49.020;8.644;2023-11-21T00:22:58;98656.22;;;13.16;64.21
40574;BME280;26283;49.020;8.644;2023-11-21T00:25:24;98650.00;;;13.15;64.21
40574;BME280;26283;49.020;8.644;2023-11-21T00:27:50;98654.56;;;13.15;64.21
40574;BME280;26283;49.020;8.644;2023-11-21T00:30:15;98650.22;;;13.14;64.22
40574;BME280;26283;49.020;8.644;2023-11-21T00:32:41;98649.38;;;13.13;64.23
40574;BME280;26283;49.020;8.644;2023-11-21T00:35:06;98653.75;;;13.14;64.24
40574;BME280;26283;49.020;8.644;2023-11-21T00:37:32;98648.56;;;13.13;64.25
40574;BME280;26283;49.020;8.644;2023-11-21T00:39:58;98656.69;;;13.13;64.26
40574;BME280;26283;49.020;8.644;2023-11-21T00:42:23;98657.50;;;13.13;64.26
40574;BME280;26283;49.020;8.644;2023-11-21T00:44:48;98651.28;;;13.13;64.27
40574;BME280;26283;49.020;8.644;2023-11-21T00:47:14;98647.75;;;13.12;64.28
40574;BME280;26283;49.020;8.644;2023-11-21T00:49:39;98638.81;;;13.12;64.28
40574;BME280;26283;49.020;8.644;2023-11-21T00:52:05;98642.34;;;13.12;64.27
40574;BME280;26283;49.020;8.644;2023-11-21T00:54:30;98638.00;;;13.11;64.30
40574;BME280;26283;49.020;8.644;2023-11-21T00:56:56;98642.34;;;13.12;64.30
40574;BME280;26283;49.020;8.644;2023-11-21T00:59:22;98640.69;;;13.11;64.31
40574;BME280;26283;49.020;8.644;2023-11-21T01:01:48;98646.13;;;13.11;64.32
40574;BME280;26283;49.020;8.644;2023-11-21T01:04:13;98642.59;;;13.11;64.33
40574;BME280;26283;49.020;8.644;2023-11-21T01:06:39;98647.19;;;13.10;64.33
40574;BME280;26283;49.020;8.644;2023-11-21T01:09:04;98638.25;;;13.10;64.32
40574;BME280;26283;49.020;8.644;2023-11-21T01:11:34;98637.19;;;13.11;64.33
40574;BME280;26283;49.020;8.644;2023-11-21T01:14:01;98638.25;;;13.10;64.34
40574;BME280;26283;49.020;8.644;2023-11-21T01:16:28;98650.72;;;13.11;64.36
40574;BME280;26283;49.020;8.644;2023-11-21T01:18:54;98639.31;;;13.09;64.35
40574;BME280;26283;49.020;8.644;2023-11-21T01:21:19;98648.25;;;13.09;64.36
40574;BME280;26283;49.020;8.644;2023-11-21T01:23:44;98646.38;;;13.10;64.36
40574;BME280;26283;49.020;8.644;2023-11-21T01:26:10;98653.66;;;13.09;64.37
40574;BME280;26283;49.020;8.644;2023-11-21T01:28:35;98646.38;;;13.10;64.38
40574;BME280;26283;49.020;8.644;2023-11-21T01:31:00;98658.25;;;13.09;64.39
40574;BME280;26283;49.020;8.644;2023-11-21T01:33:26;98650.13;;;13.09;64.39
40574;BME280;26283;49.020;8.644;2023-11-21T01:35:51;98650.13;;;13.09;64.41
40574;BME280;26283;49.020;8.644;2023-11-21T01:38:20;98659.06;;;13.09;64.41
40574;BME280;26283;49.020;8.644;2023-11-21T01:40:46;98662.84;;;13.08;64.39
40574;BME280;26283;49.020;8.644;2023-11-21T01:43:11;98662.84;;;13.08;64.41
40574;BME280;26283;49.020;8.644;2023-11-21T01:45:37;98658.50;;;13.07;64.42
40574;BME280;26283;49.020;8.644;2023-11-21T01:48:03;98659.31;;;13.08;64.42
40574;BME280;26283;49.020;8.644;2023-11-21T01:50:28;98662.84;;;13.08;64.42
40574;BME280;26283;49.020;8.644;2023-11-21T01:52:54;98669.31;;;13.07;64.42
40574;BME280;26283;49.020;8.644;2023-11-21T01:55:20;98663.91;;;13.07;64.44
40574;BME280;26283;49.020;8.644;2023-11-21T01:57:46;98659.56;;;13.06;64.45
40574;BME280;26283;49.020;8.644;2023-11-21T02:00:13;98659.56;;;13.06;64.45
40574;BME280;26283;49.020;8.644;2023-11-21T02:02:45;98667.44;;;13.08;64.45
40574;BME280;26283;49.020;8.644;2023-11-21T02:05:15;98671.19;;;13.07;64.45
40574;BME280;26283;49.020;8.644;2023-11-21T02:07:42;98664.16;;;13.05;64.46
40574;BME280;26283;49.020;8.644;2023-11-21T02:10:08;98670.13;;;13.08;64.47
40574;BME280;26283;49.020;8.644;2023-11-21T02:12:34;98664.16;;;13.05;64.47
40574;BME280;26283;49.020;8.644;2023-11-21T02:15:05;98664.16;;;13.05;64.46
40574;BME280;26283;49.020;8.644;2023-11-21T02:17:35;98672.25;;;13.05;64.46
40574;BME280;26283;49.020;8.644;2023-11-21T02:20:01;98671.44;;;13.05;64.47
40574;BME280;26283;49.020;8.644;2023-11-21T02:22:30;98676.03;;;13.04;64.47
40574;BME280;26283;49.020;8.644;2023-11-21T02:24:56;98669.56;;;13.05;64.49
40574;BME280;26283;49.020;8.644;2023-11-21T02:27:23;98666.03;;;13.05;64.50
40574;BME280;26283;49.020;8.644;2023-11-21T02:29:48;98667.94;;;13.04;64.51
40574;BME280;26283;49.020;8.644;2023-11-21T02:32:14;98672.50;;;13.04;64.51
40574;BME280;26283;49.020;8.644;2023-11-21T02:34:39;98663.59;;;13.03;64.51
40574;BME280;26283;49.020;8.644;2023-11-21T02:37:05;98661.69;;;13.04;64.51
40574;BME280;26283;49.020;8.644;2023-11-21T02:39:31;98660.06;;;13.03;64.51
40574;BME280;26283;49.020;8.644;2023-11-21T02:41:57;98653.59;;;13.04;64.52
40574;BME280;26283;49.020;8.644;2023-11-21T02:44:22;98657.34;;;13.03;64.53
40574;BME280;26283;49.020;8.644;2023-11-21T02:46:47;98660.88;;;13.03;64.53
40574;BME280;26283;49.020;8.644;2023-11-21T02:49:13;98658.16;;;13.03;64.54
40574;BME280;26283;49.020;8.644;2023-11-21T02:51:38;98653.81;;;13.02;64.54
40574;BME280;26283;49.020;8.644;2023-11-21T02:54:05;98654.66;;;13.03;64.55
40574;BME280;26283;49.020;8.644;2023-11-21T02:56:32;98644.91;;;13.02;64.54
40574;BME280;26283;49.020;8.644;2023-11-21T02:58:59;98646.78;;;13.01;64.55
40574;BME280;26283;49.020;8.644;2023-11-21T03:01:26;98640.56;;;13.01;64.56
40574;BME280;26283;49.020;8.644;2023-11-21T03:03:51;98646.78;;;13.01;64.57
40574;BME280;26283;49.020;8.644;2023-11-21T03:06:18;98647.84;;;13.00;64.57
40574;BME280;26283;49.020;8.644;2023-11-21T03:08:43;98655.72;;;13.02;64.56
40574;BME280;26283;49.020;8.644;2023-11-21T03:11:09;98653.00;;;13.02;64.58
40574;BME280;26283;49.020;8.644;2023-11-21T03:13:34;98650.31;;;13.02;64.57
40574;BME280;26283;49.020;8.644;2023-11-21T03:15:59;98647.59;;;13.02;64.58
40574;BME280;26283;49.020;8.644;2023-11-21T03:18:25;98642.44;;;13.00;64.58
40574;BME280;26283;49.020;8.644;2023-11-21T03:20:52;98644.31;;;13.00;64.58
40574;BME280;26283;49.020;8.644;2023-11-21T03:23:17;98646.78;;;13.01;64.59
40574;BME280;26283;49.020;8.644;2023-11-21T03:25:43;98650.56;;;13.00;64.58
40574;BME280;26283;49.020;8.644;2023-11-21T03:28:08;98654.06;;;13.01;64.60
40574;BME280;26283;49.020;8.644;2023-11-21T03:30:34;98657.03;;;12.99;64.61
40574;BME280;26283;49.020;8.644;2023-11-21T03:32:59;98656.78;;;13.01;64.61
40574;BME280;26283;49.020;8.644;2023-11-21T03:35:24;98651.63;;;12.99;64.61
40574;BME280;26283;49.020;8.644;2023-11-21T03:37:51;98648.91;;;12.99;64.61
40574;BME280;26283;49.020;8.644;2023-11-21T03:40:16;98652.44;;;13.00;64.61
40574;BME280;26283;49.020;8.644;2023-11-21T03:42:41;98648.66;;;13.01;64.61
40574;BME280;26283;49.020;8.644;2023-11-21T03:45:07;98646.22;;;12.99;64.60
40574;BME280;26283;49.020;8.644;2023-11-21T03:47:33;98650.00;;;12.98;64.62
40574;BME280;26283;49.020;8.644;2023-11-21T03:49:59;98649.72;;;13.00;64.63
40574;BME280;26283;49.020;8.644;2023-11-21T03:52:24;98648.91;;;12.99;64.64
40574;BME280;26283;49.020;8.644;2023-11-21T03:54:50;98650.25;;;12.97;64.64
40574;BME280;26283;49.020;8.644;2023-11-21T03:57:15;98650.00;;;12.98;64.65
40574;BME280;26283;49.020;8.644;2023-11-21T03:59:42;98655.66;;;12.97;64.64
40574;BME280;26283;49.020;8.644;2023-11-21T04:02:07;98658.13;;;12.98;64.66
40574;BME280;26283;49.020;8.644;2023-11-21T04:04:34;98663.53;;;12.98;64.66
40574;BME280;26283;49.020;8.644;2023-11-21T04:06:59;98657.56;;;12.96;64.66
40574;BME280;26283;49.020;8.644;2023-11-21T04:09:24;98664.59;;;12.97;64.67
40574;BME280;26283;49.020;8.644;2023-11-21T04:11:51;98674.34;;;12.98;64.68
40574;BME280;26283;49.020;8.644;2023-11-21T04:14:17;98668.13;;;12.98;64.67
40574;BME280;26283;49.020;8.644;2023-11-21T04:16:42;98676.47;;;12.96;64.68
40574;BME280;26283;49.020;8.644;2023-11-21T04:19:08;98675.66;;;12.96;64.69
40574;BME280;26283;49.020;8.644;2023-11-21T04:21:38;98680.00;;;12.97;64.68
40574;BME280;26283;49.020;8.644;2023-11-21T04:24:04;98680.00;;;12.97;64.69
40574;BME280;26283;49.020;8.644;2023-11-21T04:26:30;98672.72;;;12.97;64.69
40574;BME280;26283;49.020;8.644;2023-11-21T04:28:55;98680.25;;;12.95;64.69
40574;BME280;26283;49.020;8.644;2023-11-21T04:31:20;98681.87;;;12.96;64.71
40574;BME280;26283;49.020;8.644;2023-11-21T04:33:46;98689.19;;;12.96;64.72
40574;BME280;26283;49.020;8.644;2023-11-21T04:36:11;98685.41;;;12.97;64.71
40574;BME280;26283;49.020;8.644;2023-11-21T04:38:36;98686.47;;;12.96;64.70
40574;BME280;26283;49.020;8.644;2023-11-21T04:41:02;98695.41;;;12.96;64.71
40574;BME280;26283;49.020;8.644;2023-11-21T04:43:27;98695.66;;;12.95;64.72
40574;BME280;26283;49.020;8.644;2023-11-21T04:45:54;98691.06;;;12.95;64.71
40574;BME280;26283;49.020;8.644;2023-11-21T04:48:20;98692.13;;;12.94;64.73
40574;BME280;26283;49.020;8.644;2023-11-21T04:50:45;98689.44;;;12.94;64.73
40574;BME280;26283;49.020;8.644;2023-11-21T04:53:11;98694.59;;;12.96;64.73
40574;BME280;26283;49.020;8.644;2023-11-21T04:55:39;98688.59;;;12.94;64.74
40574;BME280;26283;49.020;8.644;2023-11-21T04:58:04;98692.13;;;12.94;64.74
40574;BME280;26283;49.020;8.644;2023-11-21T05:00:30;98694.84;;;12.94;64.75
40574;BME280;26283;49.020;8.644;2023-11-21T05:02:55;98697.53;;;12.94;64.76
40574;BME280;26283;49.020;8.644;2023-11-21T05:05:20;98697.78;;;12.93;64.76
40574;BME280;26283;49.020;8.644;2023-11-21T05:07:46;98701.31;;;12.93;64.76
40574;BME280;26283;49.020;8.644;2023-11-21T05:10:11;98704.03;;;12.93;64.76
40574;BME280;26283;49.020;8.644;2023-11-21T05:12:40;98706.72;;;12.93;64.78
40574;BME280;26283;49.020;8.644;2023-11-21T05:15:07;98714.84;;;12.93;64.78
40574;BME280;26283;49.020;8.644;2023-11-21T05:17:37;98706.16;;;12.91;64.78
40574;BME280;26283;49.020;8.644;2023-11-21T05:20:03;98709.66;;;12.92;64.79
40574;BME280;26283;49.020;8.644;2023-11-21T05:22:29;98712.37;;;12.92;64.79
40574;BME280;26283;49.020;8.644;2023-11-21T05:24:55;98710.97;;;12.89;64.80
40574;BME280;26283;49.020;8.644;2023-11-21T05:27:21;98716.97;;;12.91;64.80
40574;BME280;26283;49.020;8.644;2023-11-21T05:29:46;98716.97;;;12.91;64.80
40574;BME280;26283;49.020;8.644;2023-11-21T05:32:11;98711.81;;;12.90;64.80
40574;BME280;26283;49.020;8.644;2023-11-21T05:34:37;98715.31;;;12.90;64.79
40574;BME280;26283;49.020;8.644;2023-11-21T05:37:02;98718.59;;;12.92;64.80
40574;BME280;26283;49.020;8.644;2023-11-21T05:39:27;98721.78;;;12.89;64.80
40574;BME280;26283;49.020;8.644;2023-11-21T05:41:53;98725.31;;;12.90;64.82
40574;BME280;26283;49.020;8.644;2023-11-21T05:44:19;98729.91;;;12.89;64.84
40574;BME280;26283;49.020;8.644;2023-11-21T05:46:44;98738.03;;;12.89;64.83
40574;BME280;26283;49.020;8.644;2023-11-21T05:49:10;98727.19;;;12.89;64.82
40574;BME280;26283;49.020;8.644;2023-11-21T05:51:36;98735.31;;;12.89;64.83
40574;BME280;26283;49.020;8.644;2023-11-21T05:54:02;98733.69;;;12.88;64.83
40574;BME280;26283;49.020;8.644;2023-11-21T05:56:28;98737.44;;;12.87;64.84
40574;BME280;26283;49.020;8.644;2023-11-21T05:58:53;98742.03;;;12.87;64.85
40574;BME280;26283;49.020;8.644;2023-11-21T06:01:19;98750.72;;;12.89;64.87
40574;BME280;26283;49.020;8.644;2023-11-21T06:03:44;98748.50;;;12.86;64.87
40574;BME280;26283;49.020;8.644;2023-11-21T06:06:10;98755.31;;;12.88;64.86
40574;BME280;26283;49.020;8.644;2023-11-21T06:08:36;98759.09;;;12.87;64.86
40574;BME280;26283;49.020;8.644;2023-11-21T06:11:01;98756.13;;;12.89;64.87
40574;BME280;26283;49.020;8.644;2023-11-21T06:13:27;98757.19;;;12.88;64.88
40574;BME280;26283;49.020;8.644;2023-11-21T06:15:52;98760.13;;;12.86;64.88
40574;BME280;26283;49.020;8.644;2023-11-21T06:18:18;98765.56;;;12.86;64.87
40574;BME280;26283;49.020;8.644;2023-11-21T06:20:45;98767.19;;;12.87;64.87
40574;BME280;26283;49.020;8.644;2023-11-21T06:23:11;98768.25;;;12.86;64.89
40574;BME280;26283;49.020;8.644;2023-11-21T06:25:36;98769.31;;;12.85;64.89
40574;BME280;26283;49.020;8.644;2023-11-21T06:28:02;98773.66;;;12.86;64.90
40574;BME280;26283;49.020;8.644;2023-11-21T06:30:27;98773.66;;;12.86;64.89
40574;BME280;26283;49.020;8.644;2023-11-21T06:32:54;98782.59;;;12.87;64.89
40574;BME280;26283;49.020;8.644;2023-11-21T06:35:20;98779.06;;;12.86;64.89
40574;BME280;26283;49.020;8.644;2023-11-21T06:37:46;98786.12;;;12.87;64.89
40574;BME280;26283;49.020;8.644;2023-11-21T06:40:17;98787.19;;;12.86;64.89
40574;BME280;26283;49.020;8.644;2023-11-21T06:42:43;98794.47;;;12.86;64.89
40574;BME280;26283;49.020;8.644;2023-11-21T06:45:10;98800.72;;;12.86;64.89
40574;BME280;26283;49.020;8.644;2023-11-21T06:47:36;98798.00;;;12.86;64.90
40574;BME280;26283;49.020;8.644;2023-11-21T06:50:01;98803.41;;;12.86;64.91
40574;BME280;26283;49.020;8.644;2023-11-21T06:52:26;98796.34;;;12.85;64.91
40574;BME280;26283;49.020;8.644;2023-11-21T06:54:52;98804.47;;;12.85;64.91
40574;BME280;26283;49.020;8.644;2023-11-21T06:57:17;98809.88;;;12.85;64.92
40574;BME280;26283;49.020;8.644;2023-11-21T06:59:43;98815.28;;;12.85;64.92
40574;BME280;26283;49.020;8.644;2023-11-21T07:02:09;98805.53;;;12.84;64.92
40574;BME280;26283;49.020;8.644;2023-11-21T07:04:37;98803.66;;;12.85;64.93
40574;BME280;26283;49.020;8.644;2023-11-21T07:07:03;98804.13;;;12.82;64.94
40574;BME280;26283;49.020;8.644;2023-11-21T07:09:29;98811.19;;;12.83;64.94
40574;BME280;26283;49.020;8.644;2023-11-21T07:11:55;98812.81;;;12.84;64.96
40574;BME280;26283;49.020;8.644;2023-11-21T07:14:21;98816.59;;;12.83;64.95
40574;BME280;26283;49.020;8.644;2023-11-21T07:16:47;98821.19;;;12.82;64.95
40574;BME280;26283;49.020;8.644;2023-11-21T07:19:13;98823.88;;;12.82;64.96
40574;BME280;26283;49.020;8.644;2023-11-21T07:21:39;98833.63;;;12.83;64.95
40574;BME280;26283;49.020;8.644;2023-11-21T07:24:06;98833.63;;;12.83;64.94
40574;BME280;26283;49.020;8.644;2023-11-21T07:26:32;98830.94;;;12.83;64.96
40574;BME280;26283;49.020;8.644;2023-11-21T07:28:58;98832.56;;;12.84;64.96
40574;BME280;26283;49.020;8.644;2023-11-21T07:31:24;98840.09;;;12.82;64.97
40574;BME280;26283;49.020;8.644;2023-11-21T07:33:50;98846.34;;;12.83;64.98
40574;BME280;26283;49.020;8.644;2023-11-21T07:36:16;98844.69;;;12.82;64.98
40574;BME280;26283;49.020;8.644;2023-11-21T07:38:44;98852.81;;;12.82;64.99
40574;BME280;26283;49.020;8.644;2023-11-21T10:05:02;98974.06;;;12.73;65.26
40574;BME280;26283;49.020;8.644;2023-11-21T10:07:28;98974.06;;;12.73;65.26
40574;BME280;26283;49.020;8.644;2023-11-21T10:09:57;98978.66;;;12.73;65.28
40574;BME280;26283;49.020;8.644;2023-11-21T10:12:26;98975.72;;;12.74;65.28
40574;BME280;26283;49.020;8.644;2023-11-21T10:21:49;98980.41;;;12.67;65.27
40574;BME280;26283;49.020;8.644;2023-11-21T10:24:16;98984.06;;;12.73;65.18
40574;BME280;26283;49.020;8.644;2023-11-21T10:26:43;98977.00;;;12.72;65.25
40574;BME280;26283;49.020;8.644;2023-11-21T10:29:13;98983.22;;;12.72;65.27
40574;BME280;26283;49.020;8.644;2023-11-21T10:31:42;98983.22;;;12.72;65.29
40574;BME280;26283;49.020;8.644;2023-11-21T10:34:17;98981.13;;;12.74;65.29
40574;BME280;26283;49.020;8.644;2023-11-21T10:36:49;98984.88;;;12.73;65.29
40574;BME280;26283;49.020;8.644;2023-11-21T10:39:18;98975.94;;;12.73;65.28
40574;BME280;26283;49.020;8.644;2023-11-21T10:41:48;98987.59;;;12.73;65.29
40574;BME280;26283;49.020;8.644;2023-11-21T10:44:14;98990.28;;;12.73;65.30
40574;BME280;26283;49.020;8.644;2023-11-21T10:46:49;98987.00;;;12.71;65.29
40574;BME280;26283;49.020;8.644;2023-11-21T10:49:17;98994.06;;;12.72;65.29
40574;BME280;26283;49.020;8.644;2023-11-21T10:51:44;98995.69;;;12.73;65.29
40574;BME280;26283;49.020;8.644;2023-11-21T10:54:10;98987.81;;;12.72;65.28
40574;BME280;26283;49.020;8.644;2023-11-21T11:12:09;99005.44;;;12.74;65.24
40574;BME280;26283;49.020;8.644;2023-11-21T11:14:35;99006.50;;;12.73;65.23
40574;BME280;26283;49.020;8.644;2023-11-21T11:17:01;99010.84;;;12.74;65.23
40574;BME280;26283;49.020;8.644;2023-11-21T11:19:27;99016.25;;;12.74;65.23
40574;BME280;26283;49.020;8.644;2023-11-21T11:22:19;99008.97;;;12.75;65.24
40574;BME280;26283;49.020;8.644;2023-11-21T11:25:21;99008.16;;;12.74;65.26
40574;BME280;26283;49.020;8.644;2023-11-21T11:27:59;99007.31;;;12.74;65.19
40574;BME280;26283;49.020;8.644;2023-11-21T11:30:53;99008.16;;;12.74;65.21
40574;BME280;26283;49.020;8.644;2023-11-21T11:33:43;99011.09;;;12.73;65.22
40574;BME280;26283;49.020;8.644;2023-11-21T11:36:16;99017.31;;;12.73;65.24
40574;BME280;26283;49.020;8.644;2023-11-21T12:30:30;99042.25;;;12.75;65.18
40574;BME280;26283;49.020;8.644;2023-11-21T12:32:58;99046.59;;;12.76;65.19
40574;BME280;26283;49.020;8.644;2023-11-21T12:35:27;99042.25;;;12.75;65.18
40574;BME280;26283;49.020;8.644;2023-11-21T12:37:54;99047.66;;;12.75;65.18
40574;BME280;26283;49.020;8.644;2023-11-21T12:40:22;99041.41;;;12.75;65.17
40574;BME280;26283;49.020;8.644;2023-11-21T12:42:58;99054.69;;;12.76;65.17
40574;BME280;26283;49.020;8.644;2023-11-21T12:45:28;99058.22;;;12.77;65.20
40574;BME280;26283;49.020;8.644;2023-11-21T12:48:04;99061.75;;;12.77;65.18
40574;BME280;26283;49.020;8.644;2023-11-21T12:50:34;99060.94;;;12.77;65.18
40574;BME280;26283;49.020;8.644;2023-11-21T12:53:03;99060.12;;;12.76;65.16
40574;BME280;26283;49.020;8.644;2023-11-21T12:55:31;99065.53;;;12.76;65.17
40574;BME280;26283;49.020;8.644;2023-11-21T12:57:57;99064.69;;;12.76;65.17
40574;BME280;26283;49.020;8.644;2023-11-21T13:00:33;99062.81;;;12.76;65.18
40574;BME280;26283;49.020;8.644;2023-11-21T13:03:03;99070.09;;;12.76;65.19
40574;BME280;26283;49.020;8.644;2023-11-21T13:05:36;99066.34;;;12.77;65.16
40574;BME280;26283;49.020;8.644;2023-11-21T13:08:08;99070.94;;;12.76;65.18
40574;BME280;26283;49.020;8.644;2023-11-21T13:10:35;99074.47;;;12.77;65.15
40574;BME280;26283;49.020;8.644;2023-11-21T13:13:06;99069.03;;;12.77;65.16
40574;BME280;26283;49.020;8.644;2023-11-21T13:15:34;99075.50;;;12.76;65.17
40574;BME280;26283;49.020;8.644;2023-11-21T13:18:02;99079.03;;;12.76;65.15
40574;BME280;26283;49.020;8.644;2023-11-21T13:20:27;99083.38;;;12.77;65.16
40574;BME280;26283;49.020;8.644;2023-11-21T13:22:56;99087.97;;;12.77;65.16
40574;BME280;26283;49.020;8.644;2023-11-21T13:25:29;99084.44;;;12.76;65.16
40574;BME280;26283;49.020;8.644;2023-11-21T13:27:57;99089.84;;;12.76;65.15
40574;BME280;26283;49.020;8.644;2023-11-21T13:30:23;99087.97;;;12.77;65.15
40574;BME280;26283;49.020;8.644;2023-11-21T13:32:53;99095.00;;;12.78;65.14
40574;BME280;26283;49.020;8.644;2023-11-21T13:35:23;99081.75;;;12.76;65.14
40574;BME280;26283;49.020;8.644;2023-11-21T13:37:57;99090.69;;;12.77;65.13
40574;BME280;26283;49.020;8.644;2023-11-21T13:40:25;99092.28;;;12.78;65.12
40574;BME280;26283;49.020;8.644;2023-11-21T13:42:54;99100.41;;;12.78;65.11
40574;BME280;26283;49.020;8.644;2023-11-21T13:45:23;99098.53;;;12.78;65.11
40574;BME280;26283;49.020;8.644;2023-11-21T13:47:50;99099.63;;;12.77;65.11
40574;BME280;26283;49.020;8.644;2023-11-21T13:50:25;99095.00;;;12.78;65.11
40574;BME280;26283;49.020;8.644;2023-11-21T13:52:58;99106.63;;;12.78;65.10
40574;BME280;26283;49.020;8.644;2023-11-21T13:55:25;99099.63;;;12.77;65.10
40574;BME280;26283;49.020;8.644;2023-11-21T13:57:51;99103.94;;;12.78;65.10
40574;BME280;26283;49.020;8.644;2023-11-21T14:00:17;99102.31;;;12.77;65.11
40574;BME280;26283;49.020;8.644;2023-11-21T14:03:02;99105.03;;;12.77;65.11
40574;BME280;26283;49.020;8.644;2023-11-21T14:05:31;99107.72;;;12.77;65.09
40574;BME280;26283;49.020;8.644;2023-11-21T14:07:59;99108.78;;;12.76;65.11
40574;BME280;26283;49.020;8.644;2023-11-21T14:10:31;99108.78;;;12.76;65.11
40574;BME280;26283;49.020;8.644;2023-11-21T14:13:09;99115.00;;;12.77;65.11
40574;BME280;26283;49.020;8.644;2023-11-21T14:15:39;99113.12;;;12.77;65.09
40574;BME280;26283;49.020;8.644;2023-11-21T14:18:08;99116.63;;;12.78;65.11
40574;BME280;26283;49.020;8.644;2023-11-21T14:20:36;99119.59;;;12.76;65.11
40574;BME280;26283;49.020;8.644;2023-11-21T14:23:03;99123.13;;;12.77;65.11
40574;BME280;26283;49.020;8.644;2023-11-21T14:25:30;99132.06;;;12.77;65.12
40574;BME280;26283;49.020;8.644;2023-11-21T14:27:55;99132.06;;;12.77;65.12
40574;BME280;26283;49.020;8.644;2023-11-21T14:30:21;99143.66;;;12.78;65.12
40574;BME280;26283;49.020;8.644;2023-11-21T14:32:48;99145.59;;;12.77;65.11
40574;BME280;26283;49.020;8.644;2023-11-21T14:35:15;99148.28;;;12.77;65.11
40574;BME280;26283;49.020;8.644;2023-11-21T14:37:43;99152.59;;;12.78;65.12
40574;BME280;26283;49.020;8.644;2023-11-21T14:40:09;99158.00;;;12.78;65.11
40574;BME280;26283;49.020;8.644;2023-11-21T14:42:35;99163.41;;;12.78;65.09
40574;BME280;26283;49.020;8.644;2023-11-21T14:45:03;99166.12;;;12.78;65.09
40574;BME280;26283;49.020;8.644;2023-11-21T14:47:32;99169.91;;;12.77;65.10
40574;BME280;26283;49.020;8.644;2023-11-21T14:50:00;99173.41;;;12.78;65.10
40574;BME280;26283;49.020;8.644;2023-11-21T14:52:31;99175.31;;;12.77;65.10
40574;BME280;26283;49.020;8.644;2023-11-21T14:55:03;99173.41;;;12.78;65.09
40574;BME280;26283;49.020;8.644;2023-11-21T14:57:49;99183.19;;;12.79;65.09
40574;BME280;26283;49.020;8.644;2023-11-21T15:00:18;99178.03;;;12.77;65.06
40574;BME280;26283;49.020;8.644;2023-11-21T15:03:03;99180.72;;;12.77;65.08
40574;BME280;26283;49.020;8.644;2023-11-21T15:05:29;99190.72;;;12.77;65.07
40574;BME280;26283;49.020;8.644;2023-11-21T15:07:55;99180.72;;;12.77;65.10
40574;BME280;26283;49.020;8.644;2023-11-21T15:10:25;99183.44;;;12.77;65.12
40574;BME280;26283;49.020;8.644;2023-11-21T15:13:10;99191.56;;;12.77;65.12
40574;BME280;26283;49.020;8.644;2023-11-21T15:15:36;99191.56;;;12.77;65.09
40574;BME280;26283;49.020;8.644;2023-11-21T15:18:03;99193.44;;;12.77;65.11
40574;BME280;26283;49.020;8.644;2023-11-21T15:20:28;99202.38;;;12.77;65.11
40574;BME280;26283;49.020;8.644;2023-11-21T15:22:55;99203.16;;;12.78;65.12
40574;BME280;26283;49.020;8.644;2023-11-21T15:25:20;99205.06;;;12.77;65.12
40574;BME280;26283;49.020;8.644;2023-11-21T15:27:46;99211.28;;;12.78;65.12
40574;BME280;26283;49.020;8.644;2023-11-21T15:30:15;99209.37;;;12.78;65.11
40574;BME280;26283;49.020;8.644;2023-11-21T15:32:41;99208.56;;;12.78;65.12
40574;BME280;26283;49.020;8.644;2023-11-21T15:35:10;99214.81;;;12.78;65.12
40574;BME280;26283;49.020;8.644;2023-11-21T15:37:41;99213.19;;;12.77;65.11
40574;BME280;26283;49.020;8.644;2023-11-21T15:40:06;99214.81;;;12.78;65.10
40574;BME280;26283;49.020;8.644;2023-11-21T15:42:34;99220.22;;;12.78;65.09
40574;BME280;26283;49.020;8.644;2023-11-21T15:45:02;99225.63;;;12.78;65.09
40574;BME280;26283;49.020;8.644;2023-11-21T15:47:29;99222.69;;;12.80;65.09
40574;BME280;26283;49.020;8.644;2023-11-21T15:49:55;99225.63;;;12.78;65.10
40574;BME280;26283;49.020;8.644;2023-11-21T15:52:20;99224.78;;;12.78;65.10
40574;BME280;26283;49.020;8.644;2023-11-21T15:54:46;99231.03;;;12.78;65.10
40574;BME280;26283;49.020;8.644;2023-11-21T15:57:12;99225.63;;;12.78;65.09
40574;BME280;26283;49.020;8.644;2023-11-21T15:59:40;99232.91;;;12.78;65.09
40574;BME280;26283;49.020;8.644;2023-11-21T16:02:07;99231.03;;;12.78;65.08
40574;BME280;26283;49.020;8.644;2023-11-21T16:04:32;99225.63;;;12.78;65.08
40574;BME280;26283;49.020;8.644;2023-11-21T16:06:58;99224.00;;;12.77;65.09
40574;BME280;26283;49.020;8.644;2023-11-21T16:09:24;99232.13;;;12.77;65.09
40574;BME280;26283;49.020;8.644;2023-11-21T16:12:00;99231.03;;;12.78;65.09
40574;BME280;26283;49.020;8.644;2023-11-21T16:14:31;99244.53;;;12.78;65.10
40574;BME280;26283;49.020;8.644;2023-11-21T16:17:02;99243.97;;;12.76;65.09
40574;BME280;26283;49.020;8.644;2023-11-21T16:19:28;99251.84;;;12.78;65.09
40574;BME280;26283;49.020;8.644;2023-11-21T16:21:56;99257.00;;;12.79;65.09
40574;BME280;26283;49.020;8.644;2023-11-21T16:24:22;99260.78;;;12.78;65.10
40574;BME280;26283;49.020;8.644;2023-11-21T16:26:48;99257.25;;;12.78;65.10
40574;BME280;26283;49.020;8.644;2023-11-21T16:29:13;99254.53;;;12.78;65.10
40574;BME280;26283;49.020;8.644;2023-11-21T16:31:40;99258.06;;;12.78;65.10
40574;BME280;26283;49.020;8.644;2023-11-21T16:34:12;99268.06;;;12.78;65.10
40574;BME280;26283;49.020;8.644;2023-11-21T16:36:39;99277.00;;;12.78;65.11
40574;BME280;26283;49.020;8.644;2023-11-21T16:39:04;99274.28;;;12.78;65.09